createdAt,value
2018-05-29T00:01:14.773Z,101420.50
2018-05-29T00:03:40.739Z,101421.67
2018-05-29T00:06:06.695Z,101435.20
2018-05-29T00:08:32.612Z,101428.05
2018-05-29T00:10:58.520Z,101435.36
2018-05-29T00:13:24.461Z,101434.52
2018-05-29T00:15:50.451Z,101427.56
2018-05-29T00:18:16.363Z,101421.95
2018-05-29T00:20:42.321Z,101429.92
2018-05-29T00:23:08.233Z,101423.98
2018-05-29T00:25:34.150Z,101425.13
2018-05-29T00:28:00.180Z,101421.84
2018-05-29T00:30:26.166Z,101413.26
2018-05-29T00:32:52.098Z,101415.37
2018-05-29T00:35:18.057Z,101415.48
2018-05-29T00:37:44.004Z,101418.57
2018-05-29T00:40:10.040Z,101413.20
2018-05-29T00:42:36.028Z,101402.48
2018-05-29T00:45:02.192Z,101401.12
2018-05-29T00:47:28.062Z,101403.48
2018-05-29T00:49:54.021Z,101405.65
2018-05-29T00:52:20.364Z,101402.19
2018-05-29T00:54:58.493Z,101406.20
2018-05-29T00:57:24.387Z,101398.98
2018-05-29T00:59:50.341Z,101399.77
2018-05-29T01:02:16.275Z,101389.98
2018-05-29T01:04:42.309Z,101393.41
2018-05-29T01:07:08.247Z,101385.69
2018-05-29T01:09:34.189Z,101381.14
2018-05-29T01:12:00.117Z,101387.52
2018-05-29T01:14:25.964Z,101383.90
2018-05-29T01:16:52.019Z,101381.38
2018-05-29T01:19:18.007Z,101383.78
2018-05-29T01:21:43.879Z,101375.76
2018-05-29T01:24:10.665Z,101383.30
2018-05-29T01:29:34.573Z,101379.41
2018-05-29T01:32:00.489Z,101377.07
2018-05-29T01:34:26.355Z,101375.80
2018-05-29T01:36:52.292Z,101372.81
2018-05-29T01:39:18.175Z,101378.25
2018-05-29T01:41:44.280Z,101374.71
2018-05-29T01:44:10.171Z,101376.88
2018-05-29T01:46:36.103Z,101378.11
2018-05-29T01:49:01.981Z,101376.58
2018-05-29T01:51:28.221Z,101370.59
2018-05-29T01:53:54.245Z,101368.25
2018-05-29T01:56:20.133Z,101368.13
2018-05-29T01:58:46.036Z,101371.09
2018-05-29T02:01:11.904Z,101369.03
2018-05-29T02:03:37.779Z,101368.16
2018-05-29T02:06:03.895Z,101373.89
2018-05-29T02:08:29.780Z,101363.66
2018-05-29T02:10:55.721Z,101372.76
2018-05-29T02:13:21.649Z,101370.09
2018-05-29T02:15:47.557Z,101374.12
2018-05-29T02:18:13.558Z,101371.45
2018-05-29T02:20:39.497Z,101372.69
2018-05-29T02:23:05.398Z,101366.86
2018-05-29T02:25:31.280Z,101363.50
2018-05-29T02:27:57.216Z,101369.73
2018-05-29T02:30:23.257Z,101364.26
2018-05-29T02:32:49.119Z,101367.48
2018-05-29T02:35:15.082Z,101366.52
2018-05-29T02:37:40.947Z,101357.55
2018-05-29T02:40:06.847Z,101357.48
2018-05-29T02:42:32.937Z,101359.32
2018-05-29T02:44:58.843Z,101358.69
2018-05-29T02:47:24.740Z,101351.77
2018-05-29T02:49:50.667Z,101358.00
2018-05-29T02:52:16.562Z,101363.63
2018-05-29T02:54:42.578Z,101358.13
2018-05-29T02:57:08.557Z,101357.16
2018-05-29T02:59:34.450Z,101362.20
2018-05-29T03:02:00.360Z,101351.94
2018-05-29T03:04:26.347Z,101350.90
2018-05-29T03:06:52.393Z,101348.17
2018-05-29T03:09:18.303Z,101352.83
2018-05-29T03:11:44.243Z,101356.16
2018-05-29T03:14:10.104Z,101351.33
2018-05-29T03:16:35.971Z,101343.40
2018-05-29T03:19:02.038Z,101346.73
2018-05-29T03:21:27.911Z,101343.80
2018-05-29T03:23:53.797Z,101344.53
2018-05-29T03:26:19.739Z,101350.52
2018-05-29T03:28:45.630Z,101355.28
2018-05-29T03:31:11.677Z,101354.18
2018-05-29T03:33:37.649Z,101351.68
2018-05-29T03:36:03.539Z,101356.61
2018-05-29T03:38:29.461Z,101352.05
2018-05-29T03:40:55.414Z,101355.37
2018-05-29T03:43:22.972Z,101357.16
2018-05-29T03:45:48.872Z,101354.00
2018-05-29T03:48:14.797Z,101342.08
2018-05-29T03:50:40.655Z,101347.81
2018-05-29T03:53:06.557Z,101344.44
2018-05-29T03:55:32.623Z,101340.57
2018-05-29T03:57:58.501Z,101342.84
2018-05-29T04:00:24.397Z,101344.41
2018-05-29T04:02:50.315Z,101350.23
2018-05-29T04:05:16.189Z,101342.75
2018-05-29T04:07:42.216Z,101348.05
2018-05-29T04:10:08.128Z,101348.72
2018-05-29T04:12:34.015Z,101350.36
2018-05-29T04:14:59.883Z,101353.75
2018-05-29T04:17:25.834Z,101355.03
2018-05-29T04:19:52.454Z,101352.23
2018-05-29T04:22:18.364Z,101356.80
2018-05-29T04:24:44.411Z,101347.87
2018-05-29T04:27:11.412Z,101353.06
2018-05-29T04:29:37.364Z,101357.09
2018-05-29T04:32:03.368Z,101349.59
2018-05-29T04:34:29.261Z,101355.11
2018-05-29T04:36:55.222Z,101346.03
2018-05-29T04:39:21.141Z,101350.52
2018-05-29T04:41:47.048Z,101356.50
2018-05-29T04:44:12.925Z,101357.09
2018-05-29T04:46:39.821Z,101358.77
2018-05-29T04:49:05.811Z,101366.06
2018-05-29T04:51:31.715Z,101362.68
2018-05-29T04:53:57.708Z,101366.53
2018-05-29T04:56:23.741Z,101358.44
2018-05-29T04:58:49.649Z,101359.68
2018-05-29T05:01:16.024Z,101357.50
2018-05-29T05:03:41.893Z,101358.25
2018-05-29T05:06:07.796Z,101365.42
2018-05-29T05:08:33.723Z,101370.70
2018-05-29T05:10:59.610Z,101368.77
2018-05-29T05:13:25.555Z,101366.16
2018-05-29T05:15:51.496Z,101369.19
2018-05-29T05:18:17.387Z,101366.45
2018-05-29T05:20:43.251Z,101365.36
2018-05-29T05:23:09.202Z,101365.69
2018-05-29T05:25:35.137Z,101360.27
2018-05-29T05:28:01.034Z,101363.22
2018-05-29T05:30:26.957Z,101361.28
2018-05-29T05:32:52.905Z,101362.55
2018-05-29T05:35:18.810Z,101352.55
2018-05-29T05:37:44.833Z,101361.70
2018-05-29T05:40:10.711Z,101362.66
2018-05-29T05:42:37.539Z,101360.22
2018-05-29T05:45:03.465Z,101366.26
2018-05-29T05:47:29.386Z,101366.88
2018-05-29T05:49:55.255Z,101366.69
2018-05-29T05:52:21.183Z,101363.23
2018-05-29T05:54:48.069Z,101366.77
2018-05-29T05:57:13.930Z,101366.73
2018-05-29T05:59:39.860Z,101362.17
2018-05-29T06:02:06.654Z,101370.38
2018-05-29T06:04:32.545Z,101370.03
2018-05-29T06:06:58.511Z,101367.75
2018-05-29T06:09:25.140Z,101367.76
2018-05-29T06:11:51.025Z,101370.64
2018-05-29T06:16:49.477Z,101370.54
2018-05-29T06:19:15.361Z,101368.19
2018-05-29T06:21:41.360Z,101369.76
2018-05-29T06:24:07.230Z,101369.59
2018-05-29T06:26:33.152Z,101372.52
2018-05-29T06:28:59.095Z,101367.66
2018-05-29T06:31:24.987Z,101361.95
2018-05-29T06:33:51.917Z,101360.97
2018-05-29T06:36:17.867Z,101359.66
2018-05-29T06:38:45.065Z,101361.12
2018-05-29T06:41:10.956Z,101365.39
2018-05-29T06:43:36.888Z,101359.18
2018-05-29T06:46:02.788Z,101359.90
2018-05-29T06:48:28.653Z,101360.91
2018-05-29T06:50:54.689Z,101359.88
2018-05-29T06:53:20.599Z,101364.27
2018-05-29T06:55:47.456Z,101359.00
2018-05-29T06:58:13.376Z,101357.88
2018-05-29T07:00:39.265Z,101354.78
2018-05-29T07:03:05.237Z,101357.64
2018-05-29T07:05:31.156Z,101357.00
2018-05-29T07:07:57.038Z,101353.80
2018-05-29T07:10:22.993Z,101345.23
2018-05-29T07:12:48.939Z,101341.50
2018-05-29T07:15:14.916Z,101337.38
2018-05-29T07:17:40.826Z,101341.78
2018-05-29T07:20:06.772Z,101341.09
2018-05-29T07:22:32.675Z,101335.75
2018-05-29T07:24:58.544Z,101331.58
2018-05-29T07:27:24.488Z,101328.05
2018-05-29T07:29:50.352Z,101317.43
2018-05-29T07:32:17.598Z,101313.64
2018-05-29T07:34:43.547Z,101316.91
2018-05-29T07:37:09.433Z,101308.89
2018-05-29T07:39:35.376Z,101312.03
2018-05-29T07:42:01.335Z,101306.09
2018-05-29T07:44:27.261Z,101305.36
2018-05-29T07:46:53.168Z,101302.88
2018-05-29T07:49:19.118Z,101301.73
2018-05-29T07:51:45.037Z,101302.44
2018-05-29T07:54:10.938Z,101302.84
2018-05-29T07:56:36.857Z,101287.60
2018-05-29T07:59:02.765Z,101294.59
2018-05-29T08:01:28.748Z,101294.78
2018-05-29T08:03:54.750Z,101294.61
2018-05-29T08:06:20.713Z,101283.70
2018-05-29T08:08:46.584Z,101280.63
2018-05-29T08:11:12.533Z,101281.62
2018-05-29T08:13:38.457Z,101286.16
2018-05-29T08:16:04.352Z,101278.19
2018-05-29T08:18:30.317Z,101284.03
2018-05-29T08:20:56.243Z,101280.92
2018-05-29T08:23:22.130Z,101286.24
2018-05-29T08:25:48.061Z,101272.61
2018-05-29T08:28:13.961Z,101292.33
2018-05-29T08:30:39.863Z,101280.45
2018-05-29T08:33:05.785Z,101272.17
2018-05-29T08:35:31.713Z,101276.94
2018-05-29T08:37:57.685Z,101269.54
2018-05-29T08:40:23.646Z,101270.39
2018-05-29T08:42:49.563Z,101262.25
2018-05-29T08:45:15.487Z,101247.93
2018-05-29T08:47:41.428Z,101260.58
2018-05-29T08:50:07.308Z,101253.63
2018-05-29T08:52:33.199Z,101250.63
2018-05-29T08:54:59.100Z,101254.03
2018-05-29T08:57:25.101Z,101254.92
2018-05-29T08:59:50.981Z,101244.92
2018-05-29T09:02:16.942Z,101241.81
2018-05-29T09:04:42.844Z,101247.30
2018-05-29T09:07:08.722Z,101250.58
2018-05-29T09:09:34.650Z,101244.88
2018-05-29T09:12:00.514Z,101248.31
2018-05-29T09:14:26.432Z,101244.98
2018-05-29T09:16:52.489Z,101244.03
2018-05-29T09:19:18.373Z,101235.79
2018-05-29T09:21:44.236Z,101235.63
2018-05-29T09:24:10.178Z,101236.71
2018-05-29T09:26:36.057Z,101234.94
2018-05-29T09:29:01.932Z,101226.63
2018-05-29T09:31:27.896Z,101228.17
2018-05-29T09:33:53.985Z,101234.75
2018-05-29T09:36:19.930Z,101227.73
2018-05-29T09:38:45.885Z,101222.45
2018-05-29T09:41:11.893Z,101217.84
2018-05-29T09:43:37.787Z,101218.58
2018-05-29T09:46:03.721Z,101218.06
2018-05-29T09:48:29.604Z,101215.30
2018-05-29T09:50:55.700Z,101214.14
2018-05-29T09:53:21.641Z,101211.81
2018-05-29T09:55:47.532Z,101205.97
2018-05-29T09:58:13.425Z,101212.47
2018-05-29T10:00:39.358Z,101205.59
2018-05-29T10:03:05.241Z,101206.81
2018-05-29T10:05:31.273Z,101202.41
2018-05-29T10:07:57.927Z,101195.98
2018-05-29T10:10:24.165Z,101195.50
2018-05-29T10:12:50.076Z,101192.88
2018-05-29T10:15:16.009Z,101201.06
2018-05-29T10:17:41.904Z,101203.33
2018-05-29T10:20:07.799Z,101202.23
2018-05-29T10:22:33.740Z,101205.12
2018-05-29T10:24:59.608Z,101187.44
2018-05-29T10:27:25.480Z,101190.06
2018-05-29T10:29:51.424Z,101200.60
2018-05-29T10:32:17.312Z,101193.39
2018-05-29T10:34:43.242Z,101189.78
2018-05-29T10:37:09.186Z,101191.33
2018-05-29T10:39:35.121Z,101187.53
2018-05-29T10:42:01.064Z,101175.66
2018-05-29T10:44:27.473Z,101181.27
2018-05-29T10:46:53.355Z,101173.66
2018-05-29T10:49:19.287Z,101175.71
2018-05-29T10:51:45.256Z,101159.72
2018-05-29T10:54:11.520Z,101165.55
2018-05-29T10:56:37.413Z,101160.58
2018-05-29T10:59:03.360Z,101159.53
2018-05-29T11:01:29.235Z,101153.09
2018-05-29T11:03:55.118Z,101157.01
2018-05-29T11:06:21.063Z,101159.73
2018-05-29T11:08:47.031Z,101155.84
2018-05-29T11:11:12.914Z,101158.98
2018-05-29T11:13:38.905Z,101156.31
2018-05-29T11:16:04.788Z,101154.45
2018-05-29T11:18:30.700Z,101145.89
2018-05-29T11:20:57.633Z,101140.02
2018-05-29T11:23:23.504Z,101138.45
2018-05-29T11:25:49.379Z,101143.42
2018-05-29T11:28:15.333Z,101139.25
2018-05-29T11:30:41.233Z,101133.83
2018-05-29T11:33:07.153Z,101136.81
2018-05-29T11:35:33.091Z,101139.33
2018-05-29T11:37:58.984Z,101130.62
2018-05-29T11:40:24.868Z,101128.13
2018-05-29T11:42:50.874Z,101124.48
2018-05-29T11:45:16.752Z,101125.08
2018-05-29T11:47:42.638Z,101122.76
2018-05-29T11:50:09.131Z,101112.53
2018-05-29T11:52:35.010Z,101122.06
2018-05-29T11:55:00.912Z,101111.42
2018-05-29T11:57:26.847Z,101113.73
2018-05-29T11:59:52.745Z,101112.58
2018-05-29T12:02:18.676Z,101106.76
2018-05-29T12:04:44.597Z,101106.02
2018-05-29T12:07:10.509Z,101106.59
2018-05-29T12:09:36.409Z,101103.39
2018-05-29T12:12:14.759Z,101093.47
2018-05-29T12:14:40.666Z,101092.20
2018-05-29T12:17:06.532Z,101087.51
2018-05-29T12:19:32.472Z,101084.13
2018-05-29T12:21:59.255Z,101083.06
2018-05-29T12:24:25.184Z,101081.53
2018-05-29T12:26:52.118Z,101081.45
2018-05-29T12:29:18.058Z,101072.41
2018-05-29T12:31:43.994Z,101075.84
2018-05-29T12:34:09.899Z,101069.33
2018-05-29T12:36:35.834Z,101075.00
2018-05-29T12:39:01.781Z,101066.50
2018-05-29T12:41:27.732Z,101074.26
2018-05-29T12:43:53.656Z,101071.11
2018-05-29T12:46:19.631Z,101067.68
2018-05-29T12:48:45.508Z,101064.20
2018-05-29T12:51:11.409Z,101063.78
2018-05-29T12:53:38.189Z,101064.56
2018-05-29T12:56:04.135Z,101049.92
2018-05-29T12:58:29.999Z,101052.62
2018-05-29T13:00:55.883Z,101060.62
2018-05-29T13:03:21.831Z,101047.95
2018-05-29T13:05:47.701Z,101052.72
2018-05-29T13:08:13.574Z,101040.52
2018-05-29T13:10:39.483Z,101040.61
2018-05-29T13:13:05.405Z,101036.36
2018-05-29T13:15:31.304Z,101034.23
2018-05-29T13:17:57.573Z,101025.12
2018-05-29T13:20:23.463Z,101030.91
2018-05-29T13:22:49.355Z,101030.06
2018-05-29T13:25:15.283Z,101024.54
2018-05-29T13:27:41.206Z,101013.48
2018-05-29T13:30:07.102Z,101014.73
2018-05-29T13:32:33.051Z,101008.09
2018-05-29T13:34:58.948Z,101001.21
2018-05-29T13:37:24.819Z,101004.10
2018-05-29T13:39:50.740Z,101003.05
2018-05-29T13:42:16.677Z,100998.31
2018-05-29T13:44:42.644Z,100997.29
2018-05-29T13:47:08.555Z,100995.21
2018-05-29T13:49:34.439Z,100990.67
2018-05-29T13:52:00.325Z,100975.64
2018-05-29T13:54:26.278Z,100980.98
2018-05-29T13:56:52.159Z,100978.00
2018-05-29T13:59:18.117Z,100976.19
2018-05-29T14:01:44.103Z,100969.59
2018-05-29T14:04:09.976Z,100969.89
2018-05-29T14:06:35.890Z,100965.47
2018-05-29T14:09:02.102Z,100965.81
2018-05-29T14:11:27.991Z,100962.59
2018-05-29T14:13:53.880Z,100966.02
2018-05-29T14:16:19.798Z,100960.56
2018-05-29T14:18:45.690Z,100965.60
2018-05-29T14:21:11.589Z,100953.32
2018-05-29T14:23:37.519Z,100957.66
2018-05-29T14:26:03.405Z,100952.94
2018-05-29T14:28:29.292Z,100951.02
2018-05-29T14:30:55.261Z,100953.08
2018-05-29T14:33:22.021Z,100954.64
2018-05-29T14:35:47.919Z,100953.85
2018-05-29T14:38:13.890Z,100945.15
2018-05-29T14:40:39.782Z,100941.05
2018-05-29T14:43:05.679Z,100933.27
2018-05-29T14:45:31.884Z,100937.05
2018-05-29T14:47:57.762Z,100933.42
2018-05-29T14:50:23.643Z,100933.72
2018-05-29T14:52:49.573Z,100931.23
2018-05-29T14:55:15.530Z,100924.50
2018-05-29T14:57:41.429Z,100923.59
2018-05-29T15:00:07.355Z,100923.81
2018-05-29T15:02:33.239Z,100921.66
2018-05-29T15:04:59.109Z,100916.82
2018-05-29T15:07:25.031Z,100913.22
2018-05-29T15:09:50.931Z,100912.71
2018-05-29T15:12:16.815Z,100901.63
2018-05-29T15:14:43.643Z,100902.54
2018-05-29T15:17:09.648Z,100893.98
2018-05-29T15:19:35.528Z,100900.53
2018-05-29T15:22:01.451Z,100888.70
2018-05-29T15:24:27.379Z,100887.25
2018-05-29T15:26:53.271Z,100877.27
2018-05-29T15:29:19.199Z,100874.63
2018-05-29T15:31:45.072Z,100864.74
2018-05-29T15:34:10.989Z,100863.79
2018-05-29T15:36:37.624Z,100862.25
2018-05-29T15:39:03.561Z,100856.84
2018-05-29T15:41:29.482Z,100851.59
2018-05-29T15:43:55.413Z,100859.81
2018-05-29T15:46:21.357Z,100849.20
2018-05-29T15:48:47.269Z,100850.88
2018-05-29T15:51:13.224Z,100849.44
2018-05-29T15:53:39.096Z,100843.13
2018-05-29T15:56:05.014Z,100843.69
2018-05-29T15:58:30.941Z,100844.47
2018-05-29T16:00:56.846Z,100844.44
2018-05-29T16:03:22.717Z,100842.95
2018-05-29T16:05:48.668Z,100843.02
2018-05-29T16:08:14.545Z,100846.02
2018-05-29T16:10:40.436Z,100836.42
2018-05-29T16:13:06.415Z,100835.46
2018-05-29T16:15:32.310Z,100842.27
2018-05-29T16:17:58.205Z,100840.98
2018-05-29T16:20:24.158Z,100841.05
2018-05-29T16:22:50.052Z,100843.41
2018-05-29T16:25:15.953Z,100841.27
2018-05-29T16:27:42.450Z,100840.16
2018-05-29T16:30:09.129Z,100843.64
2018-05-29T16:32:35.070Z,100836.86
2018-05-29T16:35:01.041Z,100836.14
2018-05-29T16:37:26.948Z,100835.12
2018-05-29T16:39:52.936Z,100840.22
2018-05-29T16:42:18.881Z,100833.06
2018-05-29T16:44:44.796Z,100837.75
2018-05-29T16:47:10.703Z,100836.19
2018-05-29T16:49:36.651Z,100828.34
2018-05-29T16:52:02.549Z,100837.63
2018-05-29T16:54:28.461Z,100841.20
2018-05-29T16:56:54.385Z,100836.38
2018-05-29T16:59:20.276Z,100838.41
2018-05-29T17:01:46.241Z,100837.09
2018-05-29T17:04:12.191Z,100841.23
2018-05-29T17:06:38.142Z,100839.67
2018-05-29T17:09:04.995Z,100849.05
2018-05-29T17:11:31.001Z,100849.12
2018-05-29T17:13:56.895Z,100852.80
2018-05-29T17:16:22.788Z,100845.23
2018-05-29T17:18:48.736Z,100839.05
2018-05-29T17:21:14.677Z,100831.23
2018-05-29T17:23:41.497Z,100840.59
2018-05-29T17:26:07.440Z,100837.86
2018-05-29T17:28:33.331Z,100844.94
2018-05-29T17:30:59.244Z,100845.23
2018-05-29T17:33:25.175Z,100840.37
2018-05-29T17:35:51.085Z,100843.86
2018-05-29T17:38:17.027Z,100841.81
2018-05-29T17:40:42.904Z,100841.20
2018-05-29T17:43:08.775Z,100835.72
2018-05-29T17:45:34.675Z,100842.53
2018-05-29T17:48:00.685Z,100846.07
2018-05-29T17:50:26.571Z,100843.16
2018-05-29T17:52:52.543Z,100846.33
2018-05-29T17:55:18.472Z,100845.95
2018-05-29T17:57:44.384Z,100854.43
2018-05-29T18:00:10.275Z,100853.97
2018-05-29T18:02:36.221Z,100860.27
2018-05-29T18:05:02.116Z,100869.33
2018-05-29T18:07:28.013Z,100855.30
2018-05-29T18:09:53.958Z,100855.09
2018-05-29T18:12:19.851Z,100861.98
2018-05-29T18:14:45.769Z,100856.42
2018-05-29T18:17:11.740Z,100856.52
2018-05-29T18:19:37.617Z,100855.25
2018-05-29T18:22:03.519Z,100848.80
2018-05-29T18:24:29.462Z,100850.86
2018-05-29T18:26:55.339Z,100852.78
2018-05-29T18:29:21.232Z,100847.91
2018-05-29T18:31:47.176Z,100856.87
2018-05-29T18:34:13.079Z,100854.16
2018-05-29T18:36:38.993Z,100864.75
2018-05-29T18:39:04.952Z,100856.70
2018-05-29T18:41:30.857Z,100865.45
2018-05-29T18:43:56.735Z,100866.15
2018-05-29T18:46:22.688Z,100870.86
2018-05-29T18:48:48.625Z,100882.14
2018-05-29T18:51:14.522Z,100881.81
2018-05-29T18:53:40.456Z,100887.08
2018-05-29T18:56:06.377Z,100891.69
2018-05-29T18:58:32.267Z,100894.41
2018-05-29T19:00:58.194Z,100896.03
2018-05-29T19:03:24.179Z,100893.51
2018-05-29T19:05:50.073Z,100898.44
2018-05-29T19:08:16.020Z,100906.59
2018-05-29T19:10:41.901Z,100905.48
2018-05-29T19:13:07.812Z,100908.97
2018-05-29T19:15:33.752Z,100906.20
2018-05-29T19:17:59.644Z,100917.75
2018-05-29T19:20:25.541Z,100916.02
2018-05-29T19:22:51.515Z,100924.74
2018-05-29T19:25:17.351Z,100919.66
2018-05-29T19:27:43.227Z,100922.93
2018-05-29T19:30:09.189Z,100924.22
2018-05-29T19:32:35.078Z,100930.58
2018-05-29T19:35:00.993Z,100928.95
2018-05-29T19:37:26.906Z,100935.59
2018-05-29T19:39:52.792Z,100927.67
2018-05-29T19:42:18.688Z,100929.70
2018-05-29T19:44:44.649Z,100931.02
2018-05-29T19:47:10.554Z,100923.00
2018-05-29T19:49:36.534Z,100931.25
2018-05-29T19:52:02.488Z,100935.09
2018-05-29T19:54:28.363Z,100934.30
2018-05-29T19:56:54.264Z,100941.32
2018-05-29T19:59:20.193Z,100938.01
2018-05-29T20:01:46.106Z,100938.23
2018-05-29T20:04:12.008Z,100931.75
2018-05-29T20:06:37.938Z,100927.77
2018-05-29T20:09:04.742Z,100930.38
2018-05-29T20:11:30.640Z,100934.59
2018-05-29T20:13:56.568Z,100927.55
2018-05-29T20:16:22.458Z,100921.11
2018-05-29T20:18:48.364Z,100924.77
2018-05-29T20:21:14.325Z,100923.37
2018-05-29T20:23:40.199Z,100920.67
2018-05-29T20:26:06.151Z,100917.76
2018-05-29T20:28:32.063Z,100917.87
2018-05-29T20:30:57.973Z,100916.69
2018-05-29T20:33:23.881Z,100914.70
2018-05-29T20:35:49.801Z,100911.63
2018-05-29T20:38:15.700Z,100912.39
2018-05-29T20:40:41.563Z,100911.67
2018-05-29T20:43:07.483Z,100907.89
2018-05-29T20:45:33.360Z,100918.82
2018-05-29T20:47:59.474Z,100911.31
2018-05-29T20:50:25.483Z,100909.27
2018-05-29T20:52:51.368Z,100918.17
2018-05-29T20:55:23.097Z,100904.33
2018-05-29T20:57:48.984Z,100898.45
2018-05-29T21:00:14.896Z,100902.61
2018-05-29T21:02:40.763Z,100906.55
2018-05-29T21:05:06.715Z,100897.83
2018-05-29T21:07:32.595Z,100900.83
2018-05-29T21:09:58.494Z,100902.52
2018-05-29T21:12:24.485Z,100900.17
2018-05-29T21:14:51.323Z,100899.45
2018-05-29T21:17:17.200Z,100898.54
2018-05-29T21:19:43.134Z,100891.36
2018-05-29T21:22:09.047Z,100891.89
2018-05-29T21:24:34.959Z,100886.26
2018-05-29T21:27:00.892Z,100882.26
2018-05-29T21:29:26.778Z,100885.75
2018-05-29T21:31:52.663Z,100888.20
2018-05-29T21:34:18.586Z,100887.27
2018-05-29T21:36:44.460Z,100888.18
2018-05-29T21:39:10.341Z,100889.88
2018-05-29T21:41:36.291Z,100889.97
2018-05-29T21:44:02.208Z,100890.50
2018-05-29T21:46:28.126Z,100890.97
2018-05-29T21:48:54.065Z,100885.60
2018-05-29T21:51:20.003Z,100890.27
2018-05-29T21:53:45.909Z,100882.26
2018-05-29T21:56:12.960Z,100879.05
2018-05-29T21:58:38.840Z,100887.63
2018-05-29T22:01:04.787Z,100891.23
2018-05-29T22:03:30.743Z,100883.92
2018-05-29T22:05:56.629Z,100883.59
2018-05-29T22:08:22.608Z,100880.87
2018-05-29T22:10:48.561Z,100877.71
2018-05-29T22:13:14.439Z,100878.56
2018-05-29T22:15:40.401Z,100887.73
2018-05-29T22:18:06.434Z,100886.77
2018-05-29T22:20:32.362Z,100884.48
2018-05-29T22:22:58.536Z,100876.11
2018-05-29T22:25:24.537Z,100877.92
2018-05-29T22:27:50.437Z,100884.56
2018-05-29T22:30:16.439Z,100881.70
2018-05-29T22:32:42.891Z,100888.37
2018-05-29T22:35:09.320Z,100889.62
2018-05-29T22:37:35.234Z,100888.33
2018-05-29T22:40:01.183Z,100896.02
2018-05-29T22:42:27.103Z,100888.63
2018-05-29T22:44:53.072Z,100890.81
2018-05-29T22:47:19.381Z,100895.19
2018-05-29T22:49:45.508Z,100893.89
2018-05-29T22:52:11.396Z,100892.49
2018-05-29T22:54:37.337Z,100888.07
2018-05-29T22:57:03.232Z,100902.49
2018-05-29T22:59:29.104Z,100898.78
2018-05-29T23:01:55.041Z,100894.27
2018-05-29T23:04:20.948Z,100896.12
2018-05-29T23:06:46.849Z,100898.51
2018-05-29T23:09:12.993Z,100898.47
2018-05-29T23:11:39.000Z,100892.00
2018-05-29T23:14:04.871Z,100889.30
2018-05-29T23:16:30.871Z,100892.67
2018-05-29T23:18:56.777Z,100897.80
2018-05-29T23:21:22.716Z,100891.69
2018-05-29T23:23:48.655Z,100893.16
2018-05-29T23:26:14.655Z,100893.55
2018-05-29T23:28:41.443Z,100890.41
2018-05-29T23:31:07.397Z,100884.63
2018-05-29T23:33:33.274Z,100894.33
2018-05-29T23:36:00.022Z,100892.69
2018-05-29T23:38:25.943Z,100899.89
2018-05-29T23:40:51.841Z,100896.14
2018-05-29T23:43:17.732Z,100899.98
2018-05-29T23:45:43.730Z,100896.27
2018-05-29T23:48:09.634Z,100902.00
2018-05-29T23:50:35.511Z,100902.95
2018-05-29T23:53:01.441Z,100896.41
2018-05-29T23:55:27.344Z,100911.02
2018-05-29T23:57:53.242Z,100910.52
